createdAt,value
2022-12-14T00:01:41.758Z,-0.23
2022-12-14T00:04:12.356Z,-0.35
2022-12-14T00:06:39.562Z,-0.19
2022-12-14T00:09:06.876Z,-0.11
2022-12-14T00:11:34.771Z,-0.23
2022-12-14T00:14:03.378Z,-0.18
2022-12-14T00:16:33.834Z,-0.07
2022-12-14T00:19:01.390Z,-0.15
2022-12-14T00:21:28.656Z,-0.19
2022-12-14T00:23:58.775Z,-0.23
2022-12-14T00:26:27.731Z,-0.32
2022-12-14T00:28:55.744Z,-0.29
2022-12-14T00:31:23.464Z,-0.33
2022-12-14T00:33:50.972Z,-0.26
2022-12-14T00:36:18.584Z,-0.29
2022-12-14T00:38:45.927Z,-0.40
2022-12-14T00:41:13.272Z,-0.35
2022-12-14T00:43:40.625Z,-0.33
2022-12-14T00:46:08.278Z,-0.52
2022-12-14T00:48:35.753Z,-0.55
2022-12-14T00:51:03.029Z,-0.55
2022-12-14T00:53:30.328Z,-0.48
2022-12-14T00:55:57.565Z,-0.42
2022-12-14T00:58:25.309Z,-0.52
2022-12-14T01:01:03.538Z,-0.46
2022-12-14T01:03:31.689Z,-0.46
2022-12-14T01:05:59.153Z,-0.40
2022-12-14T01:08:26.487Z,-0.43
2022-12-14T01:10:53.792Z,-0.36
2022-12-14T01:13:21.073Z,-0.39
2022-12-14T01:15:48.397Z,-0.35
2022-12-14T01:18:15.744Z,-0.45
2022-12-14T01:20:43.053Z,-0.50
2022-12-14T01:23:10.396Z,-0.40
2022-12-14T01:25:37.594Z,-0.38
2022-12-14T01:28:05.132Z,-0.28
2022-12-14T01:30:32.322Z,-0.45
2022-12-14T01:33:00.841Z,-0.40
2022-12-14T01:35:28.010Z,-0.42
2022-12-14T01:37:56.273Z,-0.55
2022-12-14T01:40:23.496Z,-0.46
2022-12-14T01:42:50.779Z,-0.49
2022-12-14T01:45:21.656Z,-0.50
2022-12-14T01:47:54.914Z,-0.66
2022-12-14T01:50:22.157Z,-0.62
2022-12-14T01:52:49.833Z,-0.60
2022-12-14T01:55:22.954Z,-0.63
2022-12-14T01:57:53.669Z,-0.62
2022-12-14T02:00:20.991Z,-0.55
2022-12-14T02:03:00.202Z,-0.50
2022-12-14T02:05:27.645Z,-0.55
2022-12-14T02:07:55.091Z,-0.45
2022-12-14T02:10:23.819Z,-0.45
2022-12-14T02:12:54.211Z,-0.49
2022-12-14T02:15:21.496Z,-0.55
2022-12-14T02:17:48.749Z,-0.49
2022-12-14T02:20:16.306Z,-0.62
2022-12-14T02:23:05.331Z,-0.53
2022-12-14T02:26:06.701Z,-0.50
2022-12-14T02:29:27.109Z,-0.53
2022-12-14T02:31:58.804Z,-0.45
2022-12-14T02:34:54.040Z,-0.49
2022-12-14T02:37:21.289Z,-0.38
2022-12-14T02:40:04.182Z,-0.35
2022-12-14T02:42:58.435Z,-0.36
2022-12-14T02:45:37.288Z,-0.35
2022-12-14T02:48:25.018Z,-0.38
2022-12-14T02:50:59.201Z,-0.49
2022-12-14T02:53:31.341Z,-0.56
2022-12-14T02:56:01.419Z,-0.50
2022-12-14T02:58:40.103Z,-0.36
2022-12-14T03:01:12.929Z,-0.36
2022-12-14T03:03:40.408Z,-0.30
2022-12-14T03:06:28.001Z,-0.35
2022-12-14T03:08:56.753Z,-0.39
2022-12-14T03:11:28.344Z,-0.40
2022-12-14T03:14:01.270Z,-0.55
2022-12-14T03:16:30.429Z,-0.38
2022-12-14T03:19:04.682Z,-0.50
2022-12-14T03:21:33.260Z,-0.59
2022-12-14T03:24:01.531Z,-0.55
2022-12-14T03:26:34.943Z,-0.48
2022-12-14T03:29:08.958Z,-0.42
2022-12-14T03:31:48.999Z,-0.56
2022-12-14T03:34:16.991Z,-0.56
2022-12-14T03:36:49.617Z,-0.62
2022-12-14T03:39:20.508Z,-0.53
2022-12-14T03:41:59.223Z,-0.62
2022-12-14T03:44:32.425Z,-0.70
2022-12-14T03:47:02.678Z,-0.60
2022-12-14T03:49:49.069Z,-0.45
2022-12-14T03:52:25.742Z,-0.55
2022-12-14T03:55:07.191Z,-0.55
2022-12-14T03:58:15.889Z,-0.57
2022-12-14T04:01:05.584Z,-0.57
2022-12-14T04:03:40.531Z,-0.73
2022-12-14T04:06:25.495Z,-0.76
2022-12-14T04:09:14.528Z,-0.73
2022-12-14T04:12:15.016Z,-0.70
2022-12-14T04:15:30.278Z,-0.62
2022-12-14T04:18:18.521Z,-0.59
2022-12-14T04:20:50.896Z,-0.69
2022-12-14T04:23:40.947Z,-0.57
2022-12-14T04:26:09.578Z,-0.56
2022-12-14T04:29:05.035Z,-0.62
2022-12-14T04:31:32.418Z,-0.59
2022-12-14T04:34:02.509Z,-0.73
2022-12-14T04:36:42.208Z,-0.79
2022-12-14T04:39:13.684Z,-0.76
2022-12-14T04:41:43.444Z,-0.69
2022-12-14T04:44:14.199Z,-0.66
2022-12-14T04:46:41.634Z,-0.63
2022-12-14T04:49:24.655Z,-0.60
2022-12-14T04:52:04.782Z,-0.57
2022-12-14T04:54:40.731Z,-0.62
2022-12-14T04:57:19.254Z,-0.79
2022-12-14T04:59:47.197Z,-0.73
2022-12-14T05:02:20.501Z,-0.73
2022-12-14T05:05:14.509Z,-0.59
2022-12-14T05:07:53.796Z,-0.55
2022-12-14T05:10:43.906Z,-0.56
2022-12-14T05:13:20.281Z,-0.69
2022-12-14T05:15:52.475Z,-0.70
2022-12-14T05:18:19.901Z,-0.63
2022-12-14T05:20:47.700Z,-0.49
2022-12-14T05:23:15.645Z,-0.46
2022-12-14T05:25:42.912Z,-0.53
2022-12-14T05:28:10.954Z,-0.49
2022-12-14T05:30:38.348Z,-0.48
2022-12-14T05:33:05.697Z,-0.59
2022-12-14T05:35:32.963Z,-0.56
2022-12-14T05:38:00.288Z,-0.66
2022-12-14T05:40:27.526Z,-0.69
2022-12-14T05:43:04.912Z,-0.70
2022-12-14T05:45:32.440Z,-0.66
2022-12-14T05:47:59.677Z,-0.66
2022-12-14T05:50:27.061Z,-0.67
2022-12-14T05:52:55.956Z,-0.65
2022-12-14T05:55:23.266Z,-0.60
2022-12-14T05:57:50.652Z,-0.66
2022-12-14T06:00:18.136Z,-0.80
2022-12-14T06:02:45.418Z,-0.83
2022-12-14T06:05:12.796Z,-0.76
2022-12-14T06:07:40.173Z,-0.67
2022-12-14T06:10:07.891Z,-0.69
2022-12-14T06:12:35.299Z,-0.65
2022-12-14T06:15:02.783Z,-0.76
2022-12-14T06:17:30.218Z,-0.67
2022-12-14T06:19:58.641Z,-0.73
2022-12-14T06:22:26.057Z,-0.66
2022-12-14T06:24:53.352Z,-0.70
2022-12-14T06:27:20.961Z,-0.69
2022-12-14T06:29:48.631Z,-0.66
2022-12-14T06:32:16.340Z,-0.63
2022-12-14T06:34:45.604Z,-0.70
2022-12-14T06:37:14.158Z,-0.60
2022-12-14T06:39:41.923Z,-0.66
2022-12-14T06:42:12.936Z,-0.52
2022-12-14T06:44:40.736Z,-0.56
2022-12-14T06:47:09.111Z,-0.73
2022-12-14T06:49:36.774Z,-0.50
2022-12-14T06:52:04.501Z,-0.42
2022-12-14T06:55:28.569Z,-0.40
2022-12-14T06:58:02.162Z,-0.46
2022-12-14T07:00:38.269Z,-0.40
2022-12-14T07:03:13.217Z,-0.45
2022-12-14T07:06:35.785Z,-0.49
2022-12-14T07:09:18.167Z,-0.49
2022-12-14T07:12:02.236Z,-0.48
2022-12-14T07:15:03.561Z,-0.45
2022-12-14T07:17:44.658Z,-0.48
2022-12-14T07:20:22.177Z,-0.49
2022-12-14T07:23:01.264Z,-0.28
2022-12-14T07:25:36.092Z,-0.39
2022-12-14T07:28:15.001Z,-0.33
2022-12-14T07:30:58.016Z,-0.30
2022-12-14T07:36:20.061Z,-0.40
2022-12-14T07:38:59.728Z,-0.55
2022-12-14T07:41:37.373Z,-0.49
2022-12-14T07:44:06.362Z,-0.43
2022-12-14T07:46:39.903Z,-0.35
2022-12-14T07:49:12.311Z,-0.38
2022-12-14T07:51:53.540Z,-0.29
2022-12-14T07:54:30.522Z,-0.28
2022-12-14T07:56:58.656Z,-0.28
2022-12-14T07:59:26.832Z,-0.32
2022-12-14T08:01:55.992Z,-0.38
2022-12-14T08:04:30.604Z,-0.32
2022-12-14T08:07:03.833Z,-0.32
2022-12-14T08:09:33.040Z,-0.22
2022-12-14T08:12:06.519Z,-0.17
2022-12-14T08:14:36.503Z,-0.22
2022-12-14T08:17:07.262Z,-0.23
2022-12-14T08:19:35.263Z,-0.23
2022-12-14T08:22:03.234Z,-0.23
2022-12-14T08:24:31.067Z,-0.09
2022-12-14T08:26:59.192Z,-0.25
2022-12-14T08:29:26.894Z,-0.14
2022-12-14T08:31:58.516Z,-0.02
2022-12-14T08:34:26.960Z,-0.05
2022-12-14T08:36:54.812Z,0.02
2022-12-14T08:39:22.601Z,-0.07
2022-12-14T08:41:53.458Z,0.06
2022-12-14T08:44:25.041Z,0.07
2022-12-14T08:46:52.883Z,-0.09
2022-12-14T08:49:20.610Z,-0.08
2022-12-14T08:51:48.084Z,-0.15
2022-12-14T08:54:15.604Z,-0.14
2022-12-14T08:56:49.531Z,-0.14
2022-12-14T08:59:44.007Z,0.02
2022-12-14T09:02:10.566Z,0.01
2022-12-14T09:04:41.236Z,-0.12
2022-12-14T09:07:13.914Z,-0.11
2022-12-14T09:09:45.842Z,-0.01
2022-12-14T09:12:13.322Z,-0.01
2022-12-14T09:14:40.918Z,-0.07
2022-12-14T09:17:11.167Z,-0.01
2022-12-14T09:19:38.810Z,0.03
2022-12-14T09:22:06.570Z,0.10
2022-12-14T09:24:34.216Z,0.01
2022-12-14T09:27:01.989Z,-0.11
2022-12-14T09:29:29.790Z,-0.01
2022-12-14T09:31:57.872Z,-0.09
2022-12-14T09:34:25.504Z,-0.07
2022-12-14T09:36:53.398Z,-0.08
2022-12-14T09:39:20.923Z,-0.07
2022-12-14T09:42:09.451Z,-0.07
2022-12-14T09:44:43.829Z,0.06
2022-12-14T09:47:25.408Z,0.03
2022-12-14T09:50:14.880Z,0.17
2022-12-14T09:52:53.074Z,0.22
2022-12-14T09:55:46.856Z,0.14
2022-12-14T09:58:19.669Z,0.29
2022-12-14T10:01:14.095Z,0.32
2022-12-14T10:04:19.575Z,0.32
2022-12-14T10:06:58.542Z,0.43
2022-12-14T10:09:43.272Z,0.65
2022-12-14T10:12:50.721Z,0.58
2022-12-14T10:15:25.258Z,0.77
2022-12-14T10:21:17.202Z,0.74
2022-12-14T10:24:09.266Z,0.93
2022-12-14T10:26:42.388Z,1.03
2022-12-14T10:29:27.113Z,0.93
2022-12-14T10:32:22.568Z,0.77
2022-12-14T10:35:44.207Z,0.64
2022-12-14T10:38:25.385Z,0.77
2022-12-14T10:40:55.884Z,0.50
2022-12-14T10:43:53.083Z,0.56
2022-12-14T10:46:40.379Z,0.58
2022-12-14T10:49:22.552Z,0.77
2022-12-14T10:51:52.444Z,1.01
2022-12-14T10:54:34.031Z,1.01
2022-12-14T10:57:04.266Z,0.91
2022-12-14T11:00:05.570Z,0.98
2022-12-14T11:02:50.671Z,1.13
2022-12-14T11:05:36.373Z,0.93
2022-12-14T11:08:07.688Z,0.85
2022-12-14T11:10:37.480Z,0.85
2022-12-14T11:13:16.897Z,1.12
2022-12-14T11:15:49.081Z,0.96
2022-12-14T11:18:16.878Z,0.78
2022-12-14T11:21:03.246Z,0.92
2022-12-14T11:23:40.155Z,0.91
2022-12-14T11:26:16.991Z,1.08
2022-12-14T11:28:49.847Z,1.21
2022-12-14T11:31:21.361Z,1.03
2022-12-14T11:33:55.167Z,1.08
2022-12-14T11:36:30.220Z,0.98
2022-12-14T11:38:58.632Z,0.98
2022-12-14T11:41:33.100Z,1.08
2022-12-14T11:44:21.775Z,1.18
2022-12-14T11:46:59.570Z,1.08
2022-12-14T11:49:39.089Z,1.05
2022-12-14T11:52:13.649Z,1.05
2022-12-14T11:54:43.173Z,1.06
2022-12-14T11:57:29.019Z,1.06
2022-12-14T12:00:02.266Z,1.08
2022-12-14T12:02:41.839Z,1.11
2022-12-14T12:05:15.134Z,1.29
2022-12-14T12:07:51.701Z,1.46
2022-12-14T12:10:20.751Z,1.40
2022-12-14T12:12:54.093Z,1.16
2022-12-14T12:15:25.059Z,1.15
2022-12-14T12:17:56.212Z,1.19
2022-12-14T12:20:29.226Z,1.25
2022-12-14T12:23:02.933Z,1.25
2022-12-14T12:25:37.184Z,1.35
2022-12-14T12:28:28.212Z,1.25
2022-12-14T12:31:11.667Z,1.16
2022-12-14T12:33:44.536Z,1.13
2022-12-14T12:36:12.474Z,1.12
2022-12-14T12:39:04.404Z,1.13
2022-12-14T12:41:41.778Z,1.12
2022-12-14T12:44:39.054Z,1.25
2022-12-14T12:47:33.346Z,1.25
2022-12-14T12:50:13.320Z,1.19
2022-12-14T12:53:13.930Z,1.35
2022-12-14T12:55:50.828Z,1.26
2022-12-14T12:58:25.309Z,1.21
2022-12-14T13:00:55.901Z,1.16
2022-12-14T13:03:26.978Z,1.16
2022-12-14T13:05:56.513Z,1.15
2022-12-14T13:08:29.340Z,1.19
2022-12-14T13:13:52.718Z,1.09
2022-12-14T13:16:48.989Z,1.13
2022-12-14T13:19:49.899Z,1.12
2022-12-14T13:22:23.347Z,1.06
2022-12-14T13:24:57.013Z,0.98
2022-12-14T13:27:55.780Z,1.02
2022-12-14T13:30:44.683Z,0.98
2022-12-14T13:33:38.872Z,1.01
2022-12-14T13:36:51.356Z,1.13
2022-12-14T13:39:42.109Z,0.99
2022-12-14T13:42:33.770Z,0.95
2022-12-14T13:45:02.243Z,0.95
2022-12-14T13:47:40.527Z,0.96
2022-12-14T13:53:16.379Z,0.96
2022-12-14T13:55:54.666Z,0.96
2022-12-14T13:58:41.153Z,0.95
2022-12-14T14:01:33.607Z,0.96
2022-12-14T14:04:10.777Z,0.89
2022-12-14T14:06:39.309Z,0.84
2022-12-14T14:09:31.552Z,0.82
2022-12-14T14:12:04.544Z,0.85
2022-12-14T14:14:40.602Z,0.87
2022-12-14T14:17:37.077Z,0.82
2022-12-14T14:20:40.879Z,0.84
2022-12-14T14:23:17.399Z,0.84
2022-12-14T14:25:51.931Z,0.82
2022-12-14T14:28:29.447Z,0.77
2022-12-14T14:30:57.449Z,0.72
2022-12-14T14:33:48.325Z,0.71
2022-12-14T14:36:33.143Z,0.75
2022-12-14T14:39:01.680Z,0.71
2022-12-14T14:41:34.282Z,0.81
2022-12-14T14:44:03.520Z,0.82
2022-12-14T14:46:39.560Z,0.67
2022-12-14T14:49:07.069Z,0.77
2022-12-14T14:51:35.779Z,0.62
2022-12-14T14:55:06.517Z,0.80
2022-12-14T14:57:36.057Z,0.88
2022-12-14T15:00:05.498Z,0.89
2022-12-14T15:02:34.459Z,0.81
2022-12-14T15:07:49.968Z,0.89
2022-12-14T15:10:22.356Z,0.93
2022-12-14T15:12:52.617Z,0.99
2022-12-14T15:15:24.410Z,0.91
2022-12-14T15:17:51.805Z,0.81
2022-12-14T15:20:29.315Z,0.80
2022-12-14T15:22:56.720Z,0.92
2022-12-14T15:25:28.532Z,0.89
2022-12-14T15:27:56.638Z,0.87
2022-12-14T15:30:25.901Z,0.87
2022-12-14T15:33:00.971Z,0.88
2022-12-14T15:35:33.702Z,1.02
2022-12-14T15:38:02.689Z,0.88
2022-12-14T15:40:30.804Z,0.81
2022-12-14T15:43:02.582Z,0.85
2022-12-14T15:45:34.915Z,0.89
2022-12-14T15:48:25.082Z,0.82
2022-12-14T15:50:56.328Z,0.85
2022-12-14T15:53:31.458Z,0.91
2022-12-14T15:56:06.747Z,0.88
2022-12-14T15:58:39.116Z,0.84
2022-12-14T16:01:30.689Z,0.89
2022-12-14T16:04:05.208Z,0.81
2022-12-14T16:06:33.753Z,0.87
2022-12-14T16:09:15.700Z,0.74
2022-12-14T16:11:48.126Z,0.74
2022-12-14T16:14:36.020Z,0.68
2022-12-14T16:17:03.494Z,0.89
2022-12-14T16:19:50.348Z,0.87
2022-12-14T16:22:29.571Z,0.77
2022-12-14T16:25:06.053Z,0.88
2022-12-14T16:27:44.599Z,0.82
2022-12-14T16:30:26.466Z,0.85
2022-12-14T16:33:14.325Z,0.78
2022-12-14T16:35:41.927Z,0.64
2022-12-14T16:38:12.950Z,0.62
2022-12-14T16:40:54.028Z,0.68
2022-12-14T16:43:32.345Z,0.65
2022-12-14T16:46:03.274Z,0.65
2022-12-14T16:48:37.994Z,0.56
2022-12-14T16:51:37.917Z,0.64
2022-12-14T16:54:24.947Z,0.68
2022-12-14T16:56:55.773Z,0.75
2022-12-14T16:59:39.196Z,0.78
2022-12-14T17:02:16.056Z,0.65
2022-12-14T17:04:45.128Z,0.61
2022-12-14T17:07:12.709Z,0.68
2022-12-14T17:09:40.151Z,0.71
2022-12-14T17:12:13.449Z,0.71
2022-12-14T17:14:47.547Z,0.78
2022-12-14T17:17:20.149Z,0.77
2022-12-14T17:19:47.636Z,0.80
2022-12-14T17:22:26.923Z,0.80
2022-12-14T17:25:12.596Z,0.74
2022-12-14T17:27:41.079Z,0.81
2022-12-14T17:30:15.236Z,0.88
2022-12-14T17:32:42.874Z,0.74
2022-12-14T17:35:23.142Z,0.67
2022-12-14T17:37:51.922Z,0.65
2022-12-14T17:40:20.719Z,0.74
2022-12-14T17:42:58.200Z,0.77
2022-12-14T17:45:28.636Z,0.77
2022-12-14T17:47:58.629Z,0.77
2022-12-14T17:50:26.431Z,0.77
2022-12-14T17:52:53.900Z,0.72
2022-12-14T17:55:26.628Z,0.74
2022-12-14T17:57:54.506Z,0.81
2022-12-14T18:00:42.691Z,0.87
2022-12-14T18:03:11.436Z,0.92
2022-12-14T18:05:44.893Z,0.89
2022-12-14T18:08:22.617Z,0.98
2022-12-14T18:10:52.633Z,1.01
2022-12-14T18:13:20.151Z,0.95
2022-12-14T18:15:49.790Z,0.88
2022-12-14T18:18:19.243Z,0.85
2022-12-14T18:20:49.728Z,0.93
2022-12-14T18:23:17.368Z,0.95
2022-12-14T18:25:47.870Z,0.93
2022-12-14T18:28:15.449Z,0.85
2022-12-14T18:30:49.441Z,0.85
2022-12-14T18:33:18.812Z,0.82
2022-12-14T18:35:46.497Z,0.91
2022-12-14T18:38:13.937Z,0.85
2022-12-14T18:40:42.351Z,0.85
2022-12-14T18:43:20.429Z,0.87
2022-12-14T18:45:47.836Z,0.88
2022-12-14T18:48:15.465Z,0.88
2022-12-14T18:50:43.698Z,0.89
2022-12-14T18:53:15.371Z,1.03
2022-12-14T18:55:42.900Z,1.06
2022-12-14T18:58:18.520Z,1.06
2022-12-14T19:00:46.229Z,1.09
2022-12-14T19:03:15.274Z,1.18
2022-12-14T19:05:43.235Z,1.21
2022-12-14T19:08:10.857Z,1.15
2022-12-14T19:10:39.677Z,0.99
2022-12-14T19:13:07.030Z,0.98
2022-12-14T19:15:34.997Z,0.87
2022-12-14T19:18:02.361Z,0.74
2022-12-14T19:20:29.867Z,0.85
2022-12-14T19:22:57.363Z,0.81
2022-12-14T19:25:24.737Z,0.72
2022-12-14T19:30:39.962Z,0.65
2022-12-14T19:33:07.273Z,0.70
2022-12-14T19:35:34.553Z,0.53
2022-12-14T19:38:01.951Z,0.61
2022-12-14T19:40:29.292Z,0.56
2022-12-14T19:42:58.647Z,0.62
2022-12-14T19:45:25.865Z,0.75
2022-12-14T19:47:53.139Z,0.71
2022-12-14T19:50:20.747Z,0.72
2022-12-14T19:52:48.168Z,0.74
2022-12-14T19:55:15.463Z,0.70
2022-12-14T19:57:42.691Z,0.68
2022-12-14T20:00:10.552Z,0.74
2022-12-14T20:02:38.284Z,0.72
2022-12-14T20:05:06.292Z,0.89
2022-12-14T20:07:36.258Z,0.95
2022-12-14T20:10:06.544Z,0.77
2022-12-14T20:12:34.312Z,0.75
2022-12-14T20:15:01.651Z,0.71
2022-12-14T20:17:29.336Z,0.65
2022-12-14T20:19:56.706Z,0.64
2022-12-14T20:22:23.942Z,0.67
2022-12-14T20:24:51.280Z,0.67
2022-12-14T20:27:18.719Z,0.77
2022-12-14T20:29:46.024Z,0.74
2022-12-14T20:32:13.277Z,0.80
2022-12-14T20:34:42.252Z,0.77
2022-12-14T20:37:09.579Z,0.92
2022-12-14T20:39:36.950Z,0.89
2022-12-14T20:42:04.196Z,0.93
2022-12-14T20:44:31.635Z,0.80
2022-12-14T20:46:58.905Z,0.87
2022-12-14T20:49:30.106Z,0.84
2022-12-14T20:51:57.633Z,0.84
2022-12-14T20:54:25.736Z,0.98
2022-12-14T20:56:53.057Z,1.05
2022-12-14T20:59:20.276Z,1.05
2022-12-14T21:01:53.458Z,1.21
2022-12-14T21:04:22.710Z,1.06
2022-12-14T21:06:49.932Z,1.03
2022-12-14T21:09:17.189Z,1.09
2022-12-14T21:12:07.523Z,0.93
2022-12-14T21:14:36.472Z,0.88
2022-12-14T21:17:04.086Z,0.93
2022-12-14T21:19:32.267Z,0.95
2022-12-14T21:21:59.544Z,1.01
2022-12-14T21:27:22.687Z,1.15
2022-12-14T21:29:50.437Z,0.88
2022-12-14T21:32:18.433Z,0.91
2022-12-14T21:34:46.049Z,1.03
2022-12-14T21:37:13.268Z,0.98
2022-12-14T21:39:40.717Z,1.08
2022-12-14T21:42:10.783Z,1.13
2022-12-14T21:44:38.372Z,1.13
2022-12-14T21:47:07.143Z,1.22
2022-12-14T21:49:38.546Z,1.11
2022-12-14T21:52:07.694Z,1.05
2022-12-14T21:54:35.245Z,1.09
2022-12-14T21:57:21.173Z,1.12
2022-12-14T21:59:48.711Z,1.22
2022-12-14T22:02:21.447Z,1.01
2022-12-14T22:04:48.876Z,1.09
2022-12-14T22:07:20.235Z,1.19
2022-12-14T22:09:50.041Z,1.15
2022-12-14T22:12:17.759Z,1.15
2022-12-14T22:14:44.993Z,1.16
2022-12-14T22:17:13.135Z,1.12
2022-12-14T22:19:40.355Z,1.09
2022-12-14T22:22:07.641Z,0.99
2022-12-14T22:24:34.844Z,1.12
2022-12-14T22:27:02.173Z,1.06
2022-12-14T22:29:29.375Z,1.05
2022-12-14T22:31:56.744Z,0.93
2022-12-14T22:34:24.162Z,1.06
2022-12-14T22:36:51.629Z,1.02
2022-12-14T22:39:19.146Z,0.88
2022-12-14T22:41:46.965Z,0.95
2022-12-14T22:44:14.253Z,0.89
2022-12-14T22:46:41.556Z,0.68
2022-12-14T22:49:09.067Z,0.81
2022-12-14T22:51:36.374Z,0.82
2022-12-14T22:54:03.643Z,0.71
2022-12-14T22:56:36.921Z,0.72
2022-12-14T22:59:12.567Z,0.68
2022-12-14T23:01:39.841Z,0.54
2022-12-14T23:04:07.395Z,0.65
2022-12-14T23:06:34.928Z,0.74
2022-12-14T23:09:20.638Z,0.80
2022-12-14T23:12:10.263Z,0.71
2022-12-14T23:14:57.301Z,0.67
2022-12-14T23:17:43.525Z,0.78
2022-12-14T23:20:29.907Z,0.84
2022-12-14T23:23:16.128Z,0.96
2022-12-14T23:26:02.013Z,0.96
2022-12-14T23:28:50.653Z,0.88
2022-12-14T23:31:36.273Z,0.75
2022-12-14T23:34:22.087Z,0.67
2022-12-14T23:37:07.921Z,0.75
2022-12-14T23:39:54.705Z,0.81
2022-12-14T23:42:40.566Z,0.87
2022-12-14T23:45:26.859Z,0.87
2022-12-14T23:48:15.150Z,0.88
2022-12-14T23:51:01.086Z,0.92
2022-12-14T23:53:50.036Z,0.93
2022-12-14T23:56:36.121Z,0.93
2022-12-14T23:59:26.315Z,0.87
